Grigg, Illinois
Current Conditions -  °F | °C
As of 11:35 AM on Thursday 30 Oct 2014 (Local Time) from KSAR Reporting Station
Overcast Overcast  
Wind Chill: 54°   Ceiling: 10000
Heat Index: 54°   Visibility: 10mi
Dew Point: 40°   Wind: 8mph
Humidity: 59%   Direction: 190°S
Pressure: 30.14"   Gusts: NA
Location:  38.1575°N, 89.9813°W
Report Text: KSAR 301635Z AUTO 19007KT 10SM OVC100 12/04 A3014 RMK AO2 T01200042
Loading
Personal Weather Stations






























Interactive Weather Map
Tropical Storm Tracking
New forecast layout! Learn more

10-Day Weather Forecast

Advertisements
Track Severe Weather on mobile